createdAt,value
2023-04-29T00:01:05.314Z,8.55
2023-04-29T00:03:34.965Z,8.82
2023-04-29T00:06:02.518Z,7.95
2023-04-29T00:08:29.451Z,8.98
2023-04-29T00:10:56.217Z,7.82
2023-04-29T00:13:22.821Z,8.45
2023-04-29T00:15:49.531Z,7.78
2023-04-29T00:18:16.141Z,7.43
2023-04-29T00:20:43.575Z,8.23
2023-04-29T00:23:10.631Z,8.52
2023-04-29T00:25:38.361Z,7.60
2023-04-29T00:28:06.036Z,7.53
2023-04-29T00:30:33.700Z,9.60
2023-04-29T00:33:00.740Z,6.82
2023-04-29T00:35:27.429Z,7.40
2023-04-29T00:37:54.421Z,7.60
2023-04-29T00:40:21.242Z,8.45
2023-04-29T00:42:47.853Z,7.20
2023-04-29T00:45:14.598Z,7.65
2023-04-29T00:47:42.125Z,7.30
2023-04-29T00:50:09.326Z,7.63
2023-04-29T00:52:38.335Z,8.50
2023-04-29T00:55:09.129Z,7.68
2023-04-29T00:57:35.951Z,7.05
2023-04-29T01:00:03.943Z,6.60
2023-04-29T01:02:30.765Z,8.15
2023-04-29T01:04:57.702Z,7.97
2023-04-29T01:07:29.339Z,7.63
2023-04-29T01:09:58.564Z,8.60
2023-04-29T01:12:35.147Z,6.93
2023-04-29T01:15:01.724Z,7.85
2023-04-29T01:17:37.541Z,6.75
2023-04-29T01:20:05.414Z,7.63
2023-04-29T01:22:32.258Z,7.13
2023-04-29T01:24:59.018Z,8.63
2023-04-29T01:27:42.496Z,7.78
2023-04-29T01:30:28.051Z,6.32
2023-04-29T01:33:28.087Z,7.97
2023-04-29T01:36:16.681Z,7.60
2023-04-29T01:39:20.734Z,6.87
2023-04-29T01:42:11.614Z,6.00
2023-04-29T01:44:39.683Z,7.57
2023-04-29T01:47:07.016Z,6.57
2023-04-29T01:49:36.398Z,6.60
2023-04-29T01:54:30.538Z,6.88
2023-04-29T01:56:58.627Z,6.63
2023-04-29T01:59:25.275Z,5.47
2023-04-29T02:01:52.436Z,5.47
2023-04-29T02:04:19.150Z,6.13
2023-04-29T02:06:45.892Z,5.00
2023-04-29T02:09:12.580Z,5.18
2023-04-29T02:11:39.334Z,5.20
2023-04-29T02:14:06.049Z,5.43
2023-04-29T02:16:32.807Z,5.60
2023-04-29T02:18:59.711Z,5.57
2023-04-29T02:21:27.185Z,5.25
2023-04-29T02:23:54.764Z,7.55
2023-04-29T02:26:21.509Z,6.05
2023-04-29T02:28:48.569Z,6.90
2023-04-29T02:31:15.256Z,6.20
2023-04-29T02:33:41.972Z,6.65
2023-04-29T02:36:08.614Z,6.57
2023-04-29T02:38:35.274Z,6.80
2023-04-29T02:41:02.233Z,6.50
2023-04-29T02:43:31.172Z,7.13
2023-04-29T02:45:58.077Z,6.05
2023-04-29T02:48:24.834Z,6.22
2023-04-29T02:50:51.514Z,6.47
2023-04-29T02:53:18.621Z,6.18
2023-04-29T02:55:45.199Z,7.53
2023-04-29T02:58:11.821Z,5.70
2023-04-29T03:00:40.526Z,6.60
2023-04-29T03:03:07.355Z,6.88
2023-04-29T03:05:34.974Z,6.30
2023-04-29T03:08:01.985Z,6.55
2023-04-29T03:10:28.644Z,7.15
2023-04-29T03:12:55.261Z,6.30
2023-04-29T03:15:21.884Z,9.60
2023-04-29T03:17:48.564Z,7.25
2023-04-29T03:20:15.212Z,7.03
2023-04-29T03:22:41.811Z,7.88
2023-04-29T03:25:10.589Z,10.65
2023-04-29T03:27:37.387Z,8.18
2023-04-29T03:30:04.394Z,7.75
2023-04-29T03:32:31.094Z,8.30
2023-04-29T03:34:57.811Z,8.88
2023-04-29T03:37:24.426Z,8.88
2023-04-29T03:39:51.225Z,9.93
2023-04-29T03:42:18.150Z,9.63
2023-04-29T03:44:44.729Z,10.20
2023-04-29T03:47:11.432Z,9.20
2023-04-29T03:49:38.063Z,9.07
2023-04-29T03:52:05.148Z,9.02
2023-04-29T03:54:32.108Z,8.32
2023-04-29T03:56:58.681Z,8.57
2023-04-29T03:59:25.377Z,7.30
2023-04-29T04:01:54.257Z,7.53
2023-04-29T04:04:22.029Z,7.93
2023-04-29T04:06:52.035Z,7.65
2023-04-29T04:09:19.032Z,8.30
2023-04-29T04:11:45.822Z,9.52
2023-04-29T04:14:13.024Z,6.72
2023-04-29T04:16:39.766Z,7.70
2023-04-29T04:19:06.517Z,8.40
2023-04-29T04:21:33.290Z,8.45
2023-04-29T04:23:59.953Z,7.85
2023-04-29T04:26:26.544Z,10.23
2023-04-29T04:28:53.152Z,8.15
2023-04-29T04:31:19.808Z,7.55
2023-04-29T04:33:46.667Z,7.93
2023-04-29T04:36:13.299Z,7.90
2023-04-29T04:38:40.062Z,8.55
2023-04-29T04:41:08.210Z,7.53
2023-04-29T04:43:34.839Z,8.23
2023-04-29T04:46:09.707Z,8.48
2023-04-29T04:48:36.395Z,8.88
2023-04-29T04:51:10.316Z,8.45
2023-04-29T04:53:37.229Z,8.25
2023-04-29T04:56:04.680Z,9.35
2023-04-29T04:58:34.018Z,8.95
2023-04-29T05:01:01.193Z,9.00
2023-04-29T05:03:28.025Z,10.13
2023-04-29T05:05:59.678Z,8.85
2023-04-29T05:08:26.998Z,9.32
2023-04-29T05:10:54.260Z,10.57
2023-04-29T05:13:21.502Z,9.40
2023-04-29T05:15:48.205Z,8.50
2023-04-29T05:18:14.846Z,9.23
2023-04-29T05:20:41.535Z,9.02
2023-04-29T05:23:08.897Z,9.30
2023-04-29T05:25:35.594Z,8.82
2023-04-29T05:28:04.499Z,9.55
2023-04-29T05:30:31.408Z,9.50
2023-04-29T05:32:58.774Z,9.50
2023-04-29T05:35:25.572Z,9.23
2023-04-29T05:37:52.222Z,9.27
2023-04-29T05:40:18.849Z,9.02
2023-04-29T05:42:45.499Z,8.90
2023-04-29T05:45:12.629Z,10.80
2023-04-29T05:47:39.443Z,9.15
2023-04-29T05:50:06.590Z,9.30
2023-04-29T05:52:33.209Z,11.88
2023-04-29T05:54:59.894Z,12.70
2023-04-29T05:57:26.481Z,8.98
2023-04-29T05:59:55.244Z,7.68
2023-04-29T06:02:22.572Z,9.13
2023-04-29T06:04:49.786Z,9.05
2023-04-29T06:07:19.518Z,8.52
2023-04-29T06:09:46.980Z,9.55
2023-04-29T06:12:13.673Z,11.63
2023-04-29T06:14:40.465Z,8.90
2023-04-29T06:17:07.172Z,11.20
2023-04-29T06:19:34.136Z,8.80
2023-04-29T06:22:00.923Z,8.85
2023-04-29T06:24:27.591Z,7.38
2023-04-29T06:26:54.229Z,9.52
2023-04-29T06:29:20.857Z,7.72
2023-04-29T06:31:47.688Z,7.07
2023-04-29T06:34:14.363Z,6.93
2023-04-29T06:36:41.676Z,6.82
2023-04-29T06:39:08.314Z,7.70
2023-04-29T06:41:35.100Z,6.88
2023-04-29T06:44:01.734Z,6.53
2023-04-29T06:46:29.193Z,6.82
2023-04-29T06:48:55.947Z,7.05
2023-04-29T06:51:22.747Z,6.25
2023-04-29T06:53:49.414Z,6.05
2023-04-29T06:56:17.188Z,5.75
2023-04-29T06:58:43.946Z,7.10
2023-04-29T07:01:11.108Z,5.32
2023-04-29T07:03:38.465Z,5.63
2023-04-29T07:06:05.322Z,6.05
2023-04-29T07:08:32.309Z,7.30
2023-04-29T07:10:59.419Z,5.03
2023-04-29T07:13:26.253Z,6.25
2023-04-29T07:15:53.302Z,5.25
2023-04-29T07:18:19.980Z,4.90
2023-04-29T07:20:48.065Z,6.15
2023-04-29T07:23:15.118Z,5.38
2023-04-29T07:25:41.807Z,5.47
2023-04-29T07:28:09.287Z,5.07
2023-04-29T07:30:36.491Z,7.95
2023-04-29T07:33:04.557Z,5.82
2023-04-29T07:35:31.767Z,5.22
2023-04-29T07:37:58.614Z,5.85
2023-04-29T07:40:25.388Z,7.60
2023-04-29T07:42:52.058Z,7.05
2023-04-29T07:45:18.747Z,7.72
2023-04-29T07:47:45.963Z,7.65
2023-04-29T07:50:12.883Z,7.95
2023-04-29T07:52:39.615Z,7.43
2023-04-29T07:55:06.632Z,8.32
2023-04-29T07:57:33.293Z,8.50
2023-04-29T07:59:59.935Z,8.15
2023-04-29T08:02:26.743Z,11.13
2023-04-29T08:04:56.125Z,9.13
2023-04-29T08:07:23.337Z,10.85
2023-04-29T08:09:50.041Z,10.75
2023-04-29T08:12:16.719Z,9.88
2023-04-29T08:14:43.304Z,14.23
2023-04-29T08:17:10.075Z,10.50
2023-04-29T08:19:36.713Z,9.48
2023-04-29T08:22:04.341Z,11.77
2023-04-29T08:24:33.511Z,9.45
2023-04-29T08:27:00.254Z,10.40
2023-04-29T08:29:27.003Z,8.48
2023-04-29T08:31:53.847Z,10.48
2023-04-29T08:34:20.561Z,7.68
2023-04-29T08:36:47.269Z,8.82
2023-04-29T08:39:13.930Z,8.73
2023-04-29T08:41:40.706Z,9.23
2023-04-29T08:44:07.396Z,8.45
2023-04-29T08:46:34.193Z,7.88
2023-04-29T08:49:03.953Z,10.38
2023-04-29T08:51:32.321Z,9.73
2023-04-29T08:53:59.041Z,7.78
2023-04-29T08:56:28.151Z,9.65
2023-04-29T08:58:58.498Z,7.45
2023-04-29T09:01:30.544Z,6.93
2023-04-29T09:04:12.460Z,6.88
2023-04-29T09:06:39.285Z,6.10
2023-04-29T09:09:07.015Z,6.57
2023-04-29T09:11:35.840Z,7.07
2023-04-29T09:14:04.420Z,6.40
2023-04-29T09:16:31.130Z,7.47
2023-04-29T09:18:58.273Z,7.50
2023-04-29T09:21:27.294Z,6.43
2023-04-29T09:23:59.261Z,6.78
2023-04-29T09:26:27.092Z,6.35
2023-04-29T09:29:16.381Z,6.75
2023-04-29T09:34:12.052Z,6.63
2023-04-29T09:36:45.974Z,7.63
2023-04-29T09:39:13.975Z,7.35
2023-04-29T09:42:02.728Z,6.32
2023-04-29T09:44:34.329Z,6.35
2023-04-29T09:47:09.062Z,6.78
2023-04-29T09:49:45.499Z,6.63
2023-04-29T09:52:15.170Z,7.07
2023-04-29T09:54:43.293Z,6.28
2023-04-29T09:57:11.358Z,6.63
2023-04-29T09:59:39.820Z,6.82
2023-04-29T10:02:15.736Z,6.77
2023-04-29T10:04:45.805Z,6.78
2023-04-29T10:07:19.136Z,7.18
2023-04-29T10:09:47.800Z,7.50
2023-04-29T10:12:19.973Z,8.30
2023-04-29T10:15:01.119Z,8.45
2023-04-29T10:18:00.158Z,8.18
2023-04-29T10:20:27.254Z,7.88
2023-04-29T10:22:57.089Z,8.02
2023-04-29T10:25:26.248Z,9.80
2023-04-29T10:27:53.790Z,9.02
2023-04-29T10:30:21.927Z,9.52
2023-04-29T10:32:52.060Z,8.15
2023-04-29T10:35:22.756Z,8.75
2023-04-29T10:37:49.952Z,9.35
2023-04-29T10:40:30.773Z,8.02
2023-04-29T10:42:57.677Z,9.25
2023-04-29T10:45:34.966Z,8.55
2023-04-29T10:48:10.736Z,7.75
2023-04-29T10:50:49.639Z,9.48
2023-04-29T10:53:19.498Z,8.77
2023-04-29T10:55:54.495Z,10.68
2023-04-29T10:58:43.666Z,9.45
2023-04-29T11:01:12.498Z,8.95
2023-04-29T11:04:12.677Z,13.32
2023-04-29T11:06:42.275Z,11.30
2023-04-29T11:09:09.121Z,10.73
2023-04-29T11:11:56.458Z,11.18
2023-04-29T11:14:38.151Z,12.75
2023-04-29T11:17:17.707Z,14.90
2023-04-29T11:19:51.131Z,13.38
2023-04-29T11:22:17.935Z,15.43
2023-04-29T11:24:54.057Z,13.15
2023-04-29T11:27:25.367Z,14.10
2023-04-29T11:29:58.295Z,15.38
2023-04-29T11:32:29.268Z,15.60
2023-04-29T11:35:06.971Z,13.60
2023-04-29T11:37:33.642Z,13.73
2023-04-29T11:40:03.544Z,15.73
2023-04-29T11:42:30.489Z,14.98
2023-04-29T11:44:57.999Z,13.77
2023-04-29T11:47:31.571Z,16.73
2023-04-29T11:50:10.274Z,15.85
2023-04-29T11:52:39.329Z,16.13
2023-04-29T11:55:08.720Z,15.65
2023-04-29T12:00:05.698Z,19.38
2023-04-29T12:02:34.876Z,17.67
2023-04-29T12:05:07.886Z,17.02
2023-04-29T12:07:36.480Z,16.90
2023-04-29T12:10:03.872Z,15.85
2023-04-29T12:12:34.996Z,14.93
2023-04-29T12:15:03.357Z,16.10
2023-04-29T12:17:30.462Z,15.85
2023-04-29T12:19:57.658Z,14.70
2023-04-29T12:22:32.063Z,16.10
2023-04-29T12:24:58.811Z,13.80
2023-04-29T12:27:26.663Z,14.70
2023-04-29T12:29:53.299Z,13.32
2023-04-29T12:32:24.024Z,13.93
2023-04-29T12:34:54.010Z,16.58
2023-04-29T12:37:26.315Z,13.50
2023-04-29T12:39:55.249Z,13.68
2023-04-29T12:42:21.854Z,12.40
2023-04-29T12:44:49.055Z,12.45
2023-04-29T12:47:17.235Z,12.18
2023-04-29T12:49:46.055Z,13.95
2023-04-29T12:52:13.495Z,11.32
2023-04-29T12:54:42.689Z,11.00
2023-04-29T12:57:11.107Z,11.10
2023-04-29T12:59:38.684Z,10.32
2023-04-29T13:02:05.561Z,9.23
2023-04-29T13:04:32.586Z,10.00
2023-04-29T13:07:02.617Z,11.60
2023-04-29T13:09:30.515Z,9.20
2023-04-29T13:11:57.926Z,9.32
2023-04-29T13:14:24.607Z,9.10
2023-04-29T13:16:51.386Z,9.95
2023-04-29T13:19:38.390Z,7.68
2023-04-29T13:22:04.947Z,7.32
2023-04-29T13:24:33.119Z,8.40
2023-04-29T13:27:00.154Z,7.32
2023-04-29T13:29:26.995Z,8.48
2023-04-29T13:31:53.695Z,8.43
2023-04-29T13:34:21.369Z,8.23
2023-04-29T13:36:48.357Z,8.90
2023-04-29T13:39:15.167Z,9.85
2023-04-29T13:41:45.535Z,7.75
2023-04-29T13:44:23.886Z,8.43
2023-04-29T13:46:57.892Z,9.98
2023-04-29T13:49:53.694Z,9.10
2023-04-29T13:58:20.448Z,8.25
2023-04-29T14:00:38.165Z,9.40
2023-04-29T14:03:02.326Z,9.48
2023-04-29T14:05:29.093Z,9.07
2023-04-29T14:07:56.202Z,10.25
2023-04-29T14:10:22.889Z,9.00
2023-04-29T14:12:49.463Z,8.65
2023-04-29T14:15:16.390Z,8.30
2023-04-29T14:17:43.159Z,10.30
2023-04-29T14:20:30.259Z,8.15
2023-04-29T14:22:56.852Z,7.70
2023-04-29T14:25:23.441Z,7.72
2023-04-29T14:27:50.202Z,7.75
2023-04-29T14:30:17.282Z,8.57
2023-04-29T14:32:44.082Z,7.25
2023-04-29T14:35:11.091Z,6.88
2023-04-29T14:37:37.691Z,11.32
2023-04-29T14:40:04.758Z,7.35
2023-04-29T14:42:31.374Z,6.90
2023-04-29T14:44:59.314Z,7.97
2023-04-29T14:47:26.100Z,7.10
2023-04-29T14:49:52.769Z,8.32
2023-04-29T14:52:19.327Z,5.95
2023-04-29T14:54:45.938Z,8.07
2023-04-29T14:57:12.952Z,5.65
2023-04-29T14:59:39.587Z,8.38
2023-04-29T15:02:06.896Z,8.23
2023-04-29T15:04:34.166Z,9.05
2023-04-29T15:07:00.923Z,7.70
2023-04-29T15:09:27.669Z,6.85
2023-04-29T15:11:54.294Z,8.00
2023-04-29T15:14:20.949Z,7.40
2023-04-29T15:16:49.056Z,7.03
2023-04-29T15:19:15.925Z,6.13
2023-04-29T15:21:42.606Z,6.60
2023-04-29T15:24:09.443Z,7.82
2023-04-29T15:26:36.114Z,9.93
2023-04-29T15:29:03.502Z,7.22
2023-04-29T15:31:30.888Z,10.82
2023-04-29T15:33:57.643Z,8.02
2023-04-29T15:36:30.116Z,8.07
2023-04-29T15:38:57.139Z,8.82
2023-04-29T15:41:25.983Z,7.97
2023-04-29T15:43:53.001Z,7.50
2023-04-29T15:46:19.800Z,7.47
2023-04-29T15:48:46.862Z,8.55
2023-04-29T15:51:16.756Z,9.73
2023-04-29T15:53:44.635Z,7.70
2023-04-29T15:56:11.528Z,8.52
2023-04-29T15:58:38.203Z,9.38
2023-04-29T16:01:05.182Z,9.32
2023-04-29T16:03:31.920Z,8.10
2023-04-29T16:05:58.672Z,8.73
2023-04-29T16:08:25.371Z,9.10
2023-04-29T16:10:52.193Z,9.35
2023-04-29T16:13:18.876Z,12.15
2023-04-29T16:15:45.854Z,9.90
2023-04-29T16:18:14.036Z,11.88
2023-04-29T16:20:41.910Z,8.50
2023-04-29T16:23:08.819Z,8.57
2023-04-29T16:25:35.517Z,7.70
2023-04-29T16:28:02.376Z,9.57
2023-04-29T16:30:29.137Z,9.25
2023-04-29T16:32:55.813Z,8.32
2023-04-29T16:35:26.338Z,6.82
2023-04-29T16:37:53.623Z,6.32
2023-04-29T16:40:20.411Z,8.75
2023-04-29T16:42:47.386Z,8.15
2023-04-29T16:45:14.723Z,8.93
2023-04-29T16:47:42.105Z,6.47
2023-04-29T16:50:09.699Z,8.27
2023-04-29T16:52:36.543Z,6.13
2023-04-29T16:55:03.849Z,6.25
2023-04-29T16:57:30.725Z,5.60
2023-04-29T16:59:57.447Z,8.45
2023-04-29T17:02:24.243Z,5.88
2023-04-29T17:04:52.128Z,7.05
2023-04-29T17:07:22.097Z,5.63
2023-04-29T17:09:48.715Z,6.07
2023-04-29T17:12:15.393Z,6.13
2023-04-29T17:14:42.122Z,8.98
2023-04-29T17:17:08.850Z,6.78
2023-04-29T17:19:35.870Z,5.72
2023-04-29T17:22:02.568Z,5.80
2023-04-29T17:24:29.681Z,6.82
2023-04-29T17:26:56.369Z,10.90
2023-04-29T17:29:22.975Z,11.85
2023-04-29T17:31:54.914Z,10.27
2023-04-29T17:34:25.713Z,9.82
2023-04-29T17:36:55.473Z,10.77
2023-04-29T17:39:22.150Z,8.25
2023-04-29T17:41:48.849Z,9.00
2023-04-29T17:44:15.715Z,10.20
2023-04-29T17:46:42.942Z,8.40
2023-04-29T17:49:09.722Z,9.32
2023-04-29T17:51:36.596Z,15.82
2023-04-29T17:54:06.648Z,21.00
2023-04-29T17:56:35.025Z,53.30
2023-04-29T17:59:03.043Z,39.80
2023-04-29T18:01:29.822Z,22.52
2023-04-29T18:03:56.591Z,23.23
2023-04-29T18:06:23.517Z,12.93
2023-04-29T18:08:50.523Z,10.32
2023-04-29T18:11:17.265Z,9.48
2023-04-29T18:13:44.251Z,11.02
2023-04-29T18:16:10.977Z,11.02
2023-04-29T18:18:37.895Z,10.68
2023-04-29T18:21:05.179Z,9.60
2023-04-29T18:23:32.119Z,10.02
2023-04-29T18:25:59.256Z,11.07
2023-04-29T18:28:26.085Z,11.27
2023-04-29T18:30:52.811Z,10.15
2023-04-29T18:33:19.600Z,11.20
2023-04-29T18:35:46.415Z,14.23
2023-04-29T18:38:17.119Z,15.30
2023-04-29T18:40:44.627Z,12.23
2023-04-29T18:43:12.267Z,10.40
2023-04-29T18:45:38.963Z,10.88
2023-04-29T18:48:07.098Z,10.88
2023-04-29T18:50:34.269Z,14.35
2023-04-29T18:53:01.296Z,11.45
2023-04-29T18:55:28.221Z,10.77
2023-04-29T18:57:54.882Z,14.23
2023-04-29T19:00:24.496Z,14.98
2023-04-29T19:02:51.431Z,17.42
2023-04-29T19:05:21.512Z,19.42
2023-04-29T19:07:48.400Z,18.08
2023-04-29T19:10:15.116Z,14.75
2023-04-29T19:12:41.834Z,11.35
2023-04-29T19:15:08.755Z,12.65
2023-04-29T19:17:36.124Z,14.07
2023-04-29T19:20:03.367Z,12.95
2023-04-29T19:22:31.237Z,13.13
2023-04-29T19:24:58.150Z,12.27
2023-04-29T19:27:24.785Z,12.70
2023-04-29T19:29:52.516Z,12.25
2023-04-29T19:32:20.312Z,10.98
2023-04-29T19:34:47.179Z,12.00
2023-04-29T19:37:14.680Z,12.52
2023-04-29T19:39:41.460Z,14.10
2023-04-29T19:42:08.126Z,13.68
2023-04-29T19:44:34.748Z,13.43
2023-04-29T19:47:01.751Z,12.63
2023-04-29T19:49:28.486Z,12.10
2023-04-29T19:51:55.261Z,14.27
2023-04-29T19:54:22.069Z,14.25
2023-04-29T19:56:48.677Z,14.38
2023-04-29T19:59:15.390Z,13.82
2023-04-29T20:01:42.576Z,12.00
2023-04-29T20:04:10.645Z,12.05
2023-04-29T20:06:39.162Z,13.75
2023-04-29T20:09:06.044Z,13.80
2023-04-29T20:11:32.664Z,14.23
2023-04-29T20:13:59.381Z,12.68
2023-04-29T20:16:27.835Z,17.73
2023-04-29T20:18:54.643Z,17.50
2023-04-29T20:21:21.289Z,18.05
2023-04-29T20:23:49.089Z,15.95
2023-04-29T20:26:17.330Z,16.98
2023-04-29T20:28:45.036Z,17.55
2023-04-29T20:31:11.882Z,18.80
2023-04-29T20:33:38.611Z,20.33
2023-04-29T20:36:06.846Z,21.50
2023-04-29T20:38:35.288Z,19.38
2023-04-29T20:41:03.032Z,18.93
2023-04-29T20:43:29.834Z,16.98
2023-04-29T20:45:58.406Z,19.00
2023-04-29T20:48:25.027Z,18.40
2023-04-29T20:50:51.756Z,18.17
2023-04-29T20:53:18.608Z,15.27
2023-04-29T20:55:46.221Z,16.10
2023-04-29T20:58:12.943Z,18.95
2023-04-29T21:00:40.706Z,19.60
2023-04-29T21:03:07.746Z,19.80
2023-04-29T21:05:34.484Z,19.90
2023-04-29T21:08:01.111Z,19.23
2023-04-29T21:10:27.752Z,19.63
2023-04-29T21:12:54.362Z,19.15
2023-04-29T21:15:21.024Z,20.73
2023-04-29T21:17:47.692Z,20.27
2023-04-29T21:20:14.332Z,21.15
2023-04-29T21:22:40.913Z,20.27
2023-04-29T21:25:08.161Z,18.38
2023-04-29T21:27:36.069Z,18.75
2023-04-29T21:30:04.866Z,20.15
2023-04-29T21:32:33.587Z,20.55
2023-04-29T21:35:00.644Z,19.20
2023-04-29T21:37:27.244Z,21.77
2023-04-29T21:39:57.378Z,22.67
2023-04-29T21:42:26.319Z,24.73
2023-04-29T21:44:59.038Z,21.48
2023-04-29T21:47:27.025Z,21.88
2023-04-29T21:49:54.202Z,26.15
2023-04-29T21:52:21.005Z,15.75
2023-04-29T21:54:47.595Z,19.15
2023-04-29T21:57:14.264Z,16.65
2023-04-29T21:59:40.882Z,15.93
2023-04-29T22:02:22.179Z,17.25
2023-04-29T22:04:50.657Z,17.77
2023-04-29T22:07:18.546Z,19.73
2023-04-29T22:09:49.859Z,17.08
2023-04-29T22:12:20.418Z,19.33
2023-04-29T22:14:47.026Z,20.55
2023-04-29T22:17:14.127Z,19.13
2023-04-29T22:19:41.091Z,22.35
2023-04-29T22:22:07.822Z,19.58
2023-04-29T22:24:34.466Z,18.27
2023-04-29T22:27:01.765Z,18.73
2023-04-29T22:29:28.466Z,21.35
2023-04-29T22:31:55.160Z,21.35
2023-04-29T22:34:21.851Z,19.27
2023-04-29T22:36:48.454Z,30.38
2023-04-29T22:39:15.038Z,23.58
2023-04-29T22:41:41.661Z,21.58
2023-04-29T22:44:08.308Z,21.02
2023-04-29T22:46:35.066Z,20.33
2023-04-29T22:49:01.813Z,19.65
2023-04-29T22:51:28.428Z,22.55
2023-04-29T22:53:55.055Z,22.95
2023-04-29T22:56:21.863Z,18.40
2023-04-29T22:58:48.554Z,19.35
2023-04-29T23:01:15.610Z,18.08
2023-04-29T23:03:42.224Z,20.25
2023-04-29T23:06:08.954Z,33.22
2023-04-29T23:08:35.548Z,28.77
2023-04-29T23:11:02.267Z,29.02
2023-04-29T23:13:28.922Z,27.00
2023-04-29T23:15:57.312Z,23.23
2023-04-29T23:18:24.085Z,19.38
2023-04-29T23:20:51.624Z,20.88
2023-04-29T23:23:18.286Z,22.38
2023-04-29T23:25:45.689Z,22.88
2023-04-29T23:28:12.327Z,20.65
2023-04-29T23:30:38.934Z,18.80
2023-04-29T23:33:05.680Z,25.45
2023-04-29T23:35:32.615Z,23.60
2023-04-29T23:37:59.297Z,16.58
2023-04-29T23:40:26.109Z,20.75
2023-04-29T23:42:52.829Z,19.88
2023-04-29T23:45:19.555Z,16.95
2023-04-29T23:47:46.274Z,20.00
2023-04-29T23:50:12.925Z,16.88
2023-04-29T23:52:39.582Z,16.98
2023-04-29T23:55:06.895Z,22.13
2023-04-29T23:57:33.597Z,21.05
